Time;durP1;ratioP1;P1;durP2;ratioP2;P2;SDS_P1;SDS_P2;PMS_P1;PMS_P2;Temp;Humidity;BMP_temperature;BMP_pressure;BME280_temperature;BME280_humidity;BME280_pressure;Samples;Min_cycle;Max_cycle;Signal;HPM_P1;HPM_P2
2023/06/02 00:02:15;;;;;;;10.10;3.90;;;;;;;10.72;100.00;100699.59;105671;1254;61639;-43
2023/06/02 00:04:44;;;;;;;6.10;3.80;;;;;;;10.76;100.00;100699.87;105732;1253;60506;-42
2023/06/02 00:07:12;;;;;;;5.20;3.70;;;;;;;10.79;100.00;100701.04;105683;1254;72574;-42
2023/06/02 00:09:41;;;;;;;11.40;3.60;;;;;;;10.76;100.00;100700.21;105713;1254;64298;-42
2023/06/02 00:12:10;;;;;;;9.30;3.90;;;;;;;10.73;100.00;100698.54;105705;1257;71517;-43
2023/06/02 00:14:38;;;;;;;7.30;4.10;;;;;;;10.72;100.00;100697.34;105663;1258;60457;-43
2023/06/02 00:17:07;;;;;;;5.60;3.80;;;;;;;10.72;100.00;100692.84;105658;1256;60530;-46
2023/06/02 00:19:35;;;;;;;7.80;4.10;;;;;;;10.73;100.00;100693.18;105763;1252;73096;-47
2023/06/02 00:22:05;;;;;;;8.60;4.10;;;;;;;10.70;100.00;100689.77;105698;1254;63030;-45
2023/06/02 00:24:33;;;;;;;5.10;3.50;;;;;;;10.64;100.00;100688.30;105703;1257;72644;-44
2023/06/02 00:27:00;;;;;;;7.10;3.80;;;;;;;10.60;100.00;100687.84;105697;1253;60536;-44
2023/06/02 00:29:28;;;;;;;4.80;3.80;;;;;;;10.58;100.00;100685.64;105694;1252;60520;-49
2023/06/02 00:31:56;;;;;;;12.10;4.50;;;;;;;10.56;100.00;100682.57;105692;1252;72637;-44
2023/06/02 00:34:24;;;;;;;11.50;4.50;;;;;;;10.53;100.00;100681.77;105703;1254;64278;-44
2023/06/02 00:36:51;;;;;;;8.20;4.30;;;;;;;10.52;100.00;100680.39;105683;1254;71948;-42
2023/06/02 00:39:19;;;;;;;7.80;4.10;;;;;;;10.49;100.00;100675.94;105672;1257;61010;-42
2023/06/02 00:41:47;;;;;;;7.50;4.60;;;;;;;10.47;100.00;100673.53;105701;1258;60386;-43
2023/06/02 00:44:15;;;;;;;9.20;4.00;;;;;;;10.48;100.00;100678.19;105658;1255;74408;-43
2023/06/02 00:46:43;;;;;;;11.40;4.60;;;;;;;10.47;100.00;100672.85;105709;1254;64333;-44
2023/06/02 00:49:11;;;;;;;12.70;4.90;;;;;;;10.43;100.00;100672.40;105647;1254;71474;-43
2023/06/02 00:51:40;;;;;;;7.80;4.40;;;;;;;10.45;100.00;100671.51;105675;1254;60530;-43
2023/06/02 00:54:09;;;;;;;9.70;4.70;;;;;;;10.46;100.00;100667.69;105715;1255;60332;-43
2023/06/02 00:56:39;;;;;;;6.40;4.40;;;;;;;10.45;100.00;100664.77;105729;1254;72563;-43
2023/06/02 00:59:07;;;;;;;9.50;4.70;;;;;;;10.47;100.00;100663.02;105707;1260;65246;-43
2023/06/02 01:01:34;;;;;;;8.10;4.20;;;;;;;10.45;100.00;100664.24;105679;1258;72614;-43
2023/06/02 01:04:02;;;;;;;6.50;3.90;;;;;;;10.42;100.00;100665.16;105617;1257;60842;-43
2023/06/02 01:06:34;;;;;;;9.70;4.30;;;;;;;10.41;100.00;100663.27;105702;1256;60405;-43
2023/06/02 01:09:03;;;;;;;6.90;3.50;;;;;;;10.38;100.00;100664.50;105702;1254;72779;-43
2023/06/02 01:11:31;;;;;;;6.40;3.60;;;;;;;10.35;100.00;100662.29;105683;1255;64098;-43
2023/06/02 01:13:59;;;;;;;5.00;3.60;;;;;;;10.31;100.00;100663.05;105695;1257;71450;-43
2023/06/02 01:16:27;;;;;;;6.40;3.60;;;;;;;10.28;100.00;100664.48;105725;1258;60622;-43
2023/06/02 01:18:54;;;;;;;4.80;3.60;;;;;;;10.27;100.00;100663.98;105882;1257;60411;-43
2023/06/02 01:21:26;;;;;;;8.30;3.60;;;;;;;10.22;100.00;100664.02;105661;1257;73802;-43
2023/06/02 01:23:57;;;;;;;8.30;3.80;;;;;;;10.20;100.00;100663.54;105716;1257;65222;-43
2023/06/02 01:26:25;;;;;;;9.10;4.20;;;;;;;10.20;100.00;100664.05;105736;1254;72303;-43
2023/06/02 01:28:53;;;;;;;8.40;4.80;;;;;;;10.17;100.00;100665.13;105436;1254;340334;-43
2023/06/02 01:34:29;;;;;;;7.60;4.90;;;;;;;10.15;100.00;100675.34;102890;1289;600683;-43
2023/06/02 01:36:57;;;;;;;12.40;4.50;;;;;;;10.12;100.00;100670.89;105117;1267;60398;-42
2023/06/02 01:39:27;;;;;;;21.20;4.70;;;;;;;10.13;100.00;100669.85;104900;1271;59339;-43
2023/06/02 01:41:55;;;;;;;7.80;3.60;;;;;;;10.15;100.00;100669.64;104876;1264;72761;-43
2023/06/02 01:44:23;;;;;;;10.30;3.90;;;;;;;10.15;100.00;100667.05;104935;1263;63341;-43
2023/06/02 01:46:50;;;;;;;8.60;4.00;;;;;;;10.14;100.00;100668.62;104519;1263;377764;-42
2023/06/02 01:49:18;;;;;;;8.50;3.50;;;;;;;10.10;100.00;100667.81;105115;1263;61667;-43
2023/06/02 01:51:46;;;;;;;76.20;7.50;;;;;;;10.05;100.00;100665.46;105174;1267;60806;-43
2023/06/02 01:54:14;;;;;;;20.90;4.40;;;;;;;10.01;100.00;100663.80;105162;1267;72325;-43
2023/06/02 01:56:42;;;;;;;12.20;3.40;;;;;;;9.98;100.00;100662.62;105074;1260;63466;-47
2023/06/02 01:59:10;;;;;;;4.70;3.20;;;;;;;9.96;100.00;100663.31;104932;1263;71546;-44
2023/06/02 02:01:40;;;;;;;7.10;4.20;;;;;;;9.93;100.00;100660.09;105178;1265;59701;-46
2023/06/02 02:04:08;;;;;;;6.80;3.80;;;;;;;9.95;100.00;100662.30;105257;1261;60014;-47
2023/06/02 02:06:37;;;;;;;9.40;4.40;;;;;;;9.99;100.00;100657.96;105249;1261;72991;-44
2023/06/02 02:09:07;;;;;;;7.80;3.60;;;;;;;9.98;100.00;100654.35;105212;1266;65142;-42
2023/06/02 02:11:34;;;;;;;8.80;3.90;;;;;;;9.97;100.00;100652.46;105210;1264;71178;-42
2023/06/02 02:14:05;;;;;;;12.30;4.40;;;;;;;9.96;100.00;100650.39;105179;1264;59620;-42
2023/06/02 02:16:32;;;;;;;9.30;4.20;;;;;;;9.98;100.00;100651.23;105199;1261;59538;-42
2023/06/02 02:19:00;;;;;;;6.20;4.10;;;;;;;10.02;100.00;100647.74;105190;1261;71840;-42
2023/06/02 02:21:28;;;;;;;10.90;4.60;;;;;;;10.08;100.00;100648.00;105146;1266;64014;-42
2023/06/02 02:23:56;;;;;;;8.20;3.90;;;;;;;10.12;100.00;100643.64;105154;1269;71499;-43
2023/06/02 02:26:25;;;;;;;6.90;3.80;;;;;;;10.13;100.00;100642.25;105155;1264;61730;-43
2023/06/02 02:28:53;;;;;;;7.00;3.80;;;;;;;10.15;100.00;100640.83;105229;1263;59525;-42
2023/06/02 02:31:22;;;;;;;9.80;3.30;;;;;;;10.18;100.00;100642.88;105098;1261;73122;-42
2023/06/02 02:33:50;;;;;;;6.80;3.70;;;;;;;10.21;100.00;100642.31;105261;1266;64035;-42
2023/06/02 02:36:18;;;;;;;4.00;3.30;;;;;;;10.23;100.00;100645.56;105144;1267;71827;-42
2023/06/02 02:38:47;;;;;;;4.10;2.90;;;;;;;10.27;100.00;100642.23;105131;1267;61670;-43
2023/06/02 02:41:15;;;;;;;6.30;3.50;;;;;;;10.32;100.00;100645.25;105241;1266;59708;-42
2023/06/02 02:43:44;;;;;;;12.00;3.60;;;;;;;10.39;100.00;100646.20;105198;1264;72220;-42
2023/06/02 02:46:11;;;;;;;3.70;2.70;;;;;;;10.45;100.00;100647.52;105137;1269;64017;-42
2023/06/02 02:48:39;;;;;;;3.50;3.00;;;;;;;10.52;100.00;100648.63;105158;1264;72687;-43
2023/06/02 02:51:07;;;;;;;6.20;4.00;;;;;;;10.58;100.00;100644.91;105196;1264;61126;-42
2023/06/02 02:53:35;;;;;;;7.50;3.60;;;;;;;10.65;100.00;100646.71;105182;1264;60103;-42
2023/06/02 02:56:03;;;;;;;4.20;3.60;;;;;;;10.75;100.00;100644.66;105149;1263;73100;-43
2023/06/02 02:58:31;;;;;;;5.70;3.60;;;;;;;10.87;100.00;100641.00;105601;1256;63911;-43
2023/06/02 03:00:59;;;;;;;8.30;3.90;;;;;;;10.99;100.00;100640.81;105616;1255;72650;-42
2023/06/02 03:03:28;;;;;;;8.10;3.60;;;;;;;11.11;100.00;100640.59;105638;1259;60480;-42
2023/06/02 03:05:56;;;;;;;7.20;3.50;;;;;;;11.24;100.00;100635.35;105635;1261;59560;-42
2023/06/02 03:08:24;;;;;;;8.10;3.60;;;;;;;11.37;100.00;100629.05;105644;1255;72087;-42
2023/06/02 03:10:52;;;;;;;9.40;3.60;;;;;;;11.53;100.00;100624.09;105580;1263;65308;-42
2023/06/02 03:13:19;;;;;;;5.80;3.20;;;;;;;11.67;100.00;100622.09;105632;1259;71369;-43
2023/06/02 03:15:48;;;;;;;6.90;3.50;;;;;;;11.78;100.00;100623.95;105598;1257;59614;-43
2023/06/02 03:18:17;;;;;;;6.30;4.10;;;;;;;11.90;100.00;100624.74;105648;1259;59580;-43
2023/06/02 03:20:48;;;;;;;14.20;4.00;;;;;;;12.00;100.00;100624.02;105616;1256;71789;-43
2023/06/02 03:23:17;;;;;;;9.10;3.80;;;;;;;12.12;100.00;100624.47;105660;1257;65406;-42
2023/06/02 03:25:44;;;;;;;10.00;3.40;;;;;;;12.25;100.00;100623.33;105598;1260;72274;-43
2023/06/02 03:28:12;;;;;;;9.70;3.80;;;;;;;12.37;100.00;100624.78;105622;1256;60374;-43
2023/06/02 03:30:40;;;;;;;5.90;3.30;;;;;;;12.50;100.00;100622.56;105625;1262;60052;-43
2023/06/02 03:33:08;;;;;;;12.20;2.90;;;;;;;12.64;100.00;100621.20;105529;1257;73006;-43
2023/06/02 03:35:36;;;;;;;8.00;3.30;;;;;;;12.78;100.00;100620.33;105619;1258;64002;-43
2023/06/02 03:38:05;;;;;;;7.20;3.70;;;;;;;12.94;100.00;100622.70;105616;1260;72672;-43
2023/06/02 03:40:34;;;;;;;39.10;4.40;;;;;;;13.13;100.00;100621.87;105579;1263;61722;-43
2023/06/02 03:43:02;;;;;;;24.90;4.10;;;;;;;13.40;100.00;100620.14;105624;1264;59924;-43
2023/06/02 03:45:30;;;;;;;9.20;2.90;;;;;;;13.76;100.00;100619.85;105624;1258;71863;-43
2023/06/02 03:47:59;;;;;;;6.90;2.70;;;;;;;14.16;100.00;100624.55;105614;1257;65223;-43
2023/06/02 03:50:27;;;;;;;7.80;3.20;;;;;;;14.60;100.00;100627.73;105565;1258;72606;-44
2023/06/02 03:52:57;;;;;;;6.10;3.20;;;;;;;15.02;100.00;100627.02;105631;1255;59781;-43
2023/06/02 03:55:25;;;;;;;10.10;3.00;;;;;;;15.45;100.00;100627.81;105614;1257;60047;-43
2023/06/02 03:57:53;;;;;;;6.60;2.70;;;;;;;15.85;100.00;100636.48;105757;1254;73153;-44
2023/06/02 04:00:21;;;;;;;7.40;3.10;;;;;;;16.19;100.00;100651.88;105891;1255;64102;-44
2023/06/02 04:02:51;;;;;;;4.30;2.70;;;;;;;16.54;100.00;100673.90;105754;1254;71545;-44
2023/06/02 04:05:19;;;;;;;3.20;2.60;;;;;;;16.90;100.00;100713.21;105894;1253;59697;-43
2023/06/02 04:07:48;;;;;;;9.40;3.20;;;;;;;17.29;100.00;100764.66;105651;1254;59529;-44
2023/06/02 04:10:16;;;;;;;6.60;2.90;;;;;;;17.63;100.00;100837.90;105712;1259;73073;-44
2023/06/02 04:12:44;;;;;;;4.10;2.90;;;;;;;17.98;100.00;100938.73;105880;1254;63975;-44
2023/06/02 04:15:12;;;;;;;9.50;2.60;;;;;;;18.32;100.00;101022.44;105692;1257;71698;-43
2023/06/02 04:17:40;;;;;;;6.50;2.60;;;;;;;18.61;100.00;100962.80;105889;1254;59624;-44
2023/06/02 04:20:09;;;;;;;8.40;2.60;;;;;;;18.91;100.00;100714.77;105895;1252;59585;-44
2023/06/02 04:22:37;;;;;;;5.30;2.40;;;;;;;19.19;100.00;100340.87;105727;1254;71810;-43
2023/06/02 04:25:05;;;;;;;6.30;2.80;;;;;;;19.34;100.00;100071.20;105701;1258;65300;-43
2023/06/02 04:27:33;;;;;;;7.80;2.30;;;;;;;19.53;100.00;100038.69;105708;1260;71410;-44
2023/06/02 04:30:02;;;;;;;9.80;2.20;;;;;;;19.73;100.00;100101.02;105907;1253;59613;-43
2023/06/02 04:32:32;;;;;;;7.90;2.60;;;;;;;19.93;100.00;100177.84;105942;1251;59654;-43
2023/06/02 04:35:02;;;;;;;4.50;2.30;;;;;;;20.19;100.00;100248.98;105964;1251;72022;-44
2023/06/02 04:37:32;;;;;;;7.00;2.40;;;;;;;20.40;100.00;100316.52;105974;1251;64122;-47
2023/06/02 04:40:02;;;;;;;8.10;2.40;;;;;;;20.60;100.00;100354.71;105730;1254;71447;-46
2023/06/02 04:42:32;;;;;;;12.30;2.60;;;;;;;20.83;100.00;100387.16;105954;1251;59717;-44
2023/06/02 04:45:03;;;;;;;5.60;2.20;;;;;;;21.08;100.00;100418.95;105930;1253;60551;-43
2023/06/02 04:47:33;;;;;;;13.50;2.80;;;;;;;21.36;99.81;100437.22;105984;1255;71535;-43
2023/06/02 04:50:01;;;;;;;5.30;2.40;;;;;;;21.63;98.53;100453.58;105802;1258;65329;-44
2023/06/02 04:52:30;;;;;;;6.10;2.20;;;;;;;21.93;87.28;100443.55;105931;1257;71929;-44
2023/06/02 04:54:58;;;;;;;7.90;2.60;;;;;;;22.16;76.10;100437.10;105869;1254;60470;-47
2023/06/02 04:57:26;;;;;;;10.10;2.40;;;;;;;22.33;71.80;100432.45;105753;1260;60530;-44
2023/06/02 04:59:53;;;;;;;7.40;2.70;;;;;;;22.47;68.43;100438.58;105956;1255;73047;-44
2023/06/02 05:02:21;;;;;;;7.00;2.70;;;;;;;22.67;65.80;100409.20;105947;1251;64366;-43
2023/06/02 05:04:49;;;;;;;7.10;2.40;;;;;;;22.88;62.83;100389.29;105951;1251;71351;-44
2023/06/02 05:07:17;;;;;;;7.20;2.60;;;;;;;22.99;59.29;100311.08;105688;1258;60003;-43
2023/06/02 05:09:44;;;;;;;6.50;2.80;;;;;;;22.98;55.85;100218.25;105747;1257;59694;-44
2023/06/02 05:12:12;;;;;;;6.00;2.50;;;;;;;22.91;56.60;100327.87;106006;1251;71801;-44
2023/06/02 05:14:45;;;;;;;15.80;2.60;;;;;;;22.95;55.45;100287.27;106002;1251;64082;-44
2023/06/02 05:17:20;;;;;;;9.20;2.50;;;;;;;23.04;55.45;100328.54;105934;1254;72209;-42
2023/06/02 05:19:47;;;;;;;9.20;2.30;;;;;;;23.18;53.77;100233.85;105690;1259;60036;-45
2023/06/02 05:22:15;;;;;;;10.50;2.30;;;;;;;23.26;52.77;100196.89;105945;1255;59522;-42
2023/06/02 05:24:43;;;;;;;11.60;2.60;;;;;;;23.21;52.49;100198.58;105997;1252;71797;-43
2023/06/02 05:27:12;;;;;;;6.40;2.50;;;;;;;23.24;52.71;100244.70;105971;1251;65271;-43
2023/06/02 05:29:40;;;;;;;10.90;2.60;;;;;;;23.38;52.22;100219.38;106021;1256;73127;-44
2023/06/02 05:32:08;;;;;;;13.50;2.60;;;;;;;23.53;50.92;100116.30;105735;1254;59735;-43
2023/06/02 05:34:37;;;;;;;9.20;2.40;;;;;;;23.68;50.58;100122.02;105955;1251;59951;-43
2023/06/02 05:37:04;;;;;;;9.00;2.70;;;;;;;23.84;49.79;100061.05;106019;1251;72961;-43
2023/06/02 05:39:32;;;;;;;31.10;3.10;;;;;;;23.94;48.56;99963.72;106064;1251;65323;-43
2023/06/02 05:42:00;;;;;;;11.60;2.40;;;;;;;23.98;47.77;99896.39;105905;1251;72619;-43
2023/06/02 05:44:28;;;;;;;40.20;3.70;;;;;;;24.10;48.51;99974.89;106027;1251;60475;-43
2023/06/02 05:46:55;;;;;;;24.20;3.70;;;;;;;24.37;49.04;100082.36;105966;1252;60390;-43
2023/06/02 05:49:23;;;;;;;24.10;2.90;;;;;;;24.66;48.11;100003.55;105997;1251;74079;-43
2023/06/02 05:51:51;;;;;;;17.30;3.20;;;;;;;24.84;46.36;99799.17;105981;1257;64222;-43
2023/06/02 05:54:19;;;;;;;9.40;2.50;;;;;;;24.99;47.52;99964.98;105931;1254;71721;-43
2023/06/02 05:56:47;;;;;;;6.60;2.40;;;;;;;25.25;47.29;99943.30;105972;1252;60526;-43
2023/06/02 05:59:14;;;;;;;9.00;2.00;;;;;;;25.41;45.18;99728.78;105910;1256;60364;-43
2023/06/02 06:01:42;;;;;;;9.60;1.80;;;;;;;25.38;43.63;99516.45;106017;1252;72740;-43
2023/06/02 06:04:10;;;;;;;6.20;1.80;;;;;;;25.44;43.32;99530.77;105976;1252;63316;-43
2023/06/02 06:06:39;;;;;;;9.80;2.00;;;;;;;25.66;43.48;99541.16;105994;1251;72653;-43
2023/06/02 06:09:06;;;;;;;6.00;2.10;;;;;;;25.87;41.63;99350.14;105733;1255;60514;-43
2023/06/02 06:11:34;;;;;;;13.90;1.80;;;;;;;25.80;40.96;99228.81;105932;1257;60431;-43
2023/06/02 06:14:07;;;;;;;13.10;2.00;;;;;;;25.74;41.66;99367.86;105986;1256;73802;-43
2023/06/02 06:16:38;;;;;;;9.80;2.00;;;;;;;25.70;40.37;99198.34;106032;1251;64015;-43
2023/06/02 06:19:05;;;;;;;5.80;1.70;;;;;;;25.68;40.67;99271.69;105971;1252;71885;-43
2023/06/02 06:21:33;;;;;;;5.90;1.90;;;;;;;25.69;40.38;99241.17;106030;1251;60419;-43
2023/06/02 06:24:00;;;;;;;13.00;2.00;;;;;;;25.71;41.52;99382.50;105994;1256;60478;-43
2023/06/02 06:26:29;;;;;;;4.50;2.10;;;;;;;25.72;42.03;99491.52;105913;1254;72630;-43
2023/06/02 06:28:57;;;;;;;13.50;2.40;;;;;;;25.74;41.04;99396.17;105952;1256;65188;-43
2023/06/02 06:31:25;;;;;;;9.90;2.20;;;;;;;25.74;38.99;99152.42;105993;1252;72744;-43
2023/06/02 06:33:53;;;;;;;10.00;1.90;;;;;;;25.77;38.39;99048.70;105984;1251;60527;-43
2023/06/02 06:36:21;;;;;;;11.40;2.20;;;;;;;25.86;38.29;99015.50;105915;1257;60401;-43
2023/06/02 06:38:48;;;;;;;21.60;2.30;;;;;;;25.91;38.53;99061.79;105988;1252;72598;-43
2023/06/02 06:41:17;;;;;;;19.40;2.10;;;;;;;25.94;38.92;99107.95;105901;1256;65290;-43
2023/06/02 06:43:45;;;;;;;10.30;2.00;;;;;;;26.02;39.09;99179.90;105971;1252;71441;-43
2023/06/02 06:46:16;;;;;;;12.30;2.30;;;;;;;26.11;38.93;99132.50;105914;1252;60438;-43
2023/06/02 06:48:44;;;;;;;9.30;1.70;;;;;;;26.21;39.36;99208.40;105977;1252;60319;-43
2023/06/02 06:51:12;;;;;;;8.80;2.20;;;;;;;26.27;39.22;99209.40;105958;1251;72508;-43
2023/06/02 06:53:40;;;;;;;6.90;1.90;;;;;;;26.23;38.29;99108.95;105933;1252;64224;-43
2023/06/02 06:56:08;;;;;;;10.50;2.10;;;;;;;26.20;38.47;99119.39;105938;1255;71427;-42
2023/06/02 06:58:36;;;;;;;4.00;1.80;;;;;;;26.25;38.50;99112.86;105946;1255;60363;-44
2023/06/02 07:01:04;;;;;;;10.80;2.40;;;;;;;26.30;38.49;99137.30;105980;1251;60393;-43
2023/06/02 07:03:31;;;;;;;6.10;1.80;;;;;;;26.38;38.73;99196.39;105936;1252;72624;-43
2023/06/02 07:06:00;;;;;;;7.20;1.60;;;;;;;26.42;38.15;99085.43;105902;1256;63907;-43
2023/06/02 07:08:29;;;;;;;11.30;1.70;;;;;;;26.58;38.92;99197.83;105965;1255;71538;-43
2023/06/02 07:10:57;;;;;;;7.70;1.60;;;;;;;26.68;39.60;99306.56;106012;1255;60466;-43
2023/06/02 07:13:25;;;;;;;3.30;1.60;;;;;;;26.80;38.23;99156.88;105952;1257;60313;-43
2023/06/02 07:15:53;;;;;;;2.60;1.90;;;;;;;26.90;37.48;99054.96;105984;1255;73805;-43
2023/06/02 07:18:21;;;;;;;3.70;1.90;;;;;;;26.99;35.54;98822.83;106077;1252;63946;-43
2023/06/02 07:20:48;;;;;;;6.10;2.10;;;;;;;26.71;34.75;98621.06;105948;1253;71518;-44
2023/06/02 07:23:16;;;;;;;4.20;1.70;;;;;;;26.53;36.69;98868.13;105920;1254;60866;-43
2023/06/02 07:25:44;;;;;;;12.30;1.90;;;;;;;26.54;36.07;98847.91;105935;1254;60332;-43
2023/06/02 07:28:12;;;;;;;24.80;2.80;;;;;;;26.49;36.21;98861.05;106040;1251;73841;-44
2023/06/02 07:30:54;;;;;;;10.80;2.10;;;;;;;26.65;35.93;98852.90;105927;1252;65156;-43
2023/06/02 07:33:36;;;;;;;3.80;1.80;;;;;;;26.63;35.48;98784.17;105868;1257;71425;-44
2023/06/02 07:36:04;;;;;;;5.50;1.80;;;;;;;26.54;34.99;98706.44;105960;1253;60594;-44
2023/06/02 07:38:32;;;;;;;7.00;2.00;;;;;;;26.50;35.09;98736.25;105933;1256;60495;-44
2023/06/02 07:41:00;;;;;;;6.10;1.90;;;;;;;26.45;34.41;98638.39;105900;1251;73789;-44
2023/06/02 07:43:28;;;;;;;4.90;2.10;;;;;;;26.46;33.38;98498.56;105963;1251;64023;-44
2023/06/02 07:45:56;;;;;;;5.20;1.50;;;;;;;26.49;34.03;98555.48;105898;1254;72637;-43
2023/06/02 07:48:23;;;;;;;11.80;2.30;;;;;;;26.79;34.14;98593.42;105866;1255;60405;-45
2023/06/02 07:50:51;;;;;;;7.80;2.00;;;;;;;27.11;33.53;98510.28;105777;1256;60351;-51
2023/06/02 07:53:19;;;;;;;31.50;3.20;;;;;;;27.43;33.10;98427.86;105978;1251;72641;-45
2023/06/02 07:55:47;;;;;;;12.30;2.10;;;;;;;27.76;33.17;98406.23;105932;1257;65150;-44
2023/06/02 07:58:15;;;;;;;13.70;2.30;;;;;;;28.03;33.01;98364.80;105897;1254;71374;-44
2023/06/02 08:00:42;;;;;;;5.90;1.70;;;;;;;28.29;33.65;98456.22;105893;1252;60507;-44
2023/06/02 08:03:10;;;;;;;11.00;2.20;;;;;;;28.52;33.71;98458.56;105913;1251;60463;-44
2023/06/02 08:05:38;;;;;;;8.70;3.00;;;;;;;28.72;33.67;98464.27;105951;1251;72533;-45
2023/06/02 08:08:06;;;;;;;5.20;1.60;;;;;;;28.88;34.20;98552.06;105884;1252;63788;-45
2023/06/02 08:10:34;;;;;;;21.30;2.70;;;;;;;29.02;33.41;98442.55;105996;1255;72691;-44
2023/06/02 08:13:02;;;;;;;7.70;2.00;;;;;;;29.27;31.25;98159.04;105966;1251;60496;-44
2023/06/02 08:15:31;;;;;;;7.40;2.40;;;;;;;29.39;29.75;97883.94;106039;1256;60328;-45
2023/06/02 08:18:00;;;;;;;3.30;1.80;;;;;;;29.37;30.63;97935.58;105926;1251;72525;-45
2023/06/02 08:20:28;;;;;;;9.10;1.80;;;;;;;29.40;31.29;98050.38;105933;1257;63903;-45
2023/06/02 08:22:56;;;;;;;4.90;2.00;;;;;;;29.53;31.48;98091.98;105941;1251;72610;-45
2023/06/02 08:25:24;;;;;;;6.20;2.00;;;;;;;29.63;32.59;98233.10;106031;1255;60895;-44
2023/06/02 08:27:52;;;;;;;15.50;2.50;;;;;;;29.79;32.00;98189.46;105938;1254;60422;-44
2023/06/02 08:30:20;;;;;;;9.80;2.20;;;;;;;30.01;30.95;98053.89;105911;1257;73820;-44
2023/06/02 08:32:48;;;;;;;7.60;1.80;;;;;;;30.19;31.47;98101.73;106007;1251;65228;-44
2023/06/02 08:35:16;;;;;;;19.00;2.90;;;;;;;30.29;31.80;98136.40;106022;1252;72671;-45
2023/06/02 08:37:44;;;;;;;24.20;2.90;;;;;;;30.36;31.90;98159.67;105904;1256;60478;-44
2023/06/02 08:40:12;;;;;;;9.70;2.00;;;;;;;30.42;31.05;98074.71;105955;1255;60322;-44
2023/06/02 08:42:40;;;;;;;13.60;2.60;;;;;;;30.31;31.03;98067.48;105739;1257;73832;-44
2023/06/02 08:45:08;;;;;;;16.70;2.90;;;;;;;30.21;30.21;97940.56;105950;1256;65391;-45
2023/06/02 08:47:36;;;;;;;4.30;1.90;;;;;;;30.22;30.97;98028.11;105927;1254;71611;-45
2023/06/02 08:50:04;;;;;;;13.30;2.20;;;;;;;30.41;30.68;97996.46;105703;1259;60526;-45
2023/06/02 08:52:32;;;;;;;79.90;4.80;;;;;;;30.48;30.67;97975.52;105749;1253;60360;-45
2023/06/02 08:55:00;;;;;;;11.80;2.10;;;;;;;30.49;30.76;98020.73;105689;1257;73800;-46
2023/06/02 08:57:28;;;;;;;19.10;2.50;;;;;;;30.50;30.57;97988.21;105883;1257;65147;-45
2023/06/02 08:59:56;;;;;;;3.50;1.60;;;;;;;30.65;30.63;97994.48;105867;1257;73072;-49
2023/06/02 09:02:23;;;;;;;8.40;2.00;;;;;;;30.78;30.04;97952.98;105946;1251;60482;-44
2023/06/02 09:04:51;;;;;;;8.20;2.20;;;;;;;30.79;29.85;97885.73;105967;1256;60501;-46
2023/06/02 09:07:22;;;;;;;12.40;1.70;;;;;;;30.91;28.88;97747.83;106023;1254;73736;-43
2023/06/02 09:09:52;;;;;;;27.00;3.00;;;;;;;31.04;29.80;97781.11;105904;1256;64322;-45
2023/06/02 09:12:22;;;;;;;39.40;3.90;;;;;;;31.09;30.58;97919.32;105916;1257;72765;-49
2023/06/02 09:15:09;;;;;;;19.70;2.70;;;;;;;31.09;31.42;98039.55;105942;1256;60395;-44
2023/06/02 09:17:37;;;;;;;6.00;2.30;;;;;;;31.00;28.92;97750.48;105936;1257;60418;-43
2023/06/02 09:20:12;;;;;;;9.90;2.10;;;;;;;30.74;29.05;97715.55;105971;1251;72555;-44
2023/06/02 09:22:56;;;;;;;;;;;;;;;30.48;28.06;97630.61;105921;1257;64303;-44
2023/06/02 09:25:28;;;;;;;4.60;2.00;;;;;;;29.93;28.62;97625.91;105922;1251;72665;-44
2023/06/02 09:27:57;;;;;;;9.90;2.30;;;;;;;29.48;30.45;97863.18;106014;1252;60523;-45
2023/06/02 09:30:25;;;;;;;12.40;2.30;;;;;;;29.49;29.56;97814.52;105935;1257;60478;-45
2023/06/02 09:32:57;;;;;;;3.90;1.80;;;;;;;29.66;28.30;97676.80;105968;1256;72632;-45
2023/06/02 09:35:35;;;;;;;10.30;1.80;;;;;;;29.41;27.46;97521.21;105980;1256;65276;-45
2023/06/02 09:38:05;;;;;;;221.40;8.50;;;;;;;29.08;30.04;97789.34;105933;1264;72722;-46
2023/06/02 09:40:35;;;;;;;8.20;2.10;;;;;;;29.18;31.23;97976.76;105985;1256;60529;-45
2023/06/02 09:43:07;;;;;;;76.70;4.90;;;;;;;29.61;31.22;98039.77;105982;1251;60530;-46
2023/06/02 09:45:47;;;;;;;7.90;2.40;;;;;;;29.91;29.87;97926.00;105999;1256;73845;-43
2023/06/02 09:48:22;;;;;;;8.10;2.10;;;;;;;29.90;28.19;97696.56;105963;1252;63978;-44
2023/06/02 09:50:50;;;;;;;;;;;;;;;29.77;29.18;97766.45;106016;1252;71415;-44
2023/06/02 09:53:18;;;;;;;15.00;1.80;;;;;;;29.76;29.16;97785.76;105996;1252;60530;-44
2023/06/02 09:55:47;;;;;;;6.00;2.30;;;;;;;29.76;30.26;97892.70;105899;1256;60386;-44
2023/06/02 09:58:15;;;;;;;4.90;1.80;;;;;;;29.72;27.87;97644.52;105965;1257;73751;-45
2023/06/02 10:00:43;;;;;;;8.30;1.90;;;;;;;29.41;27.91;97617.30;105928;1251;63850;-44
2023/06/02 10:03:11;;;;;;;11.50;1.90;;;;;;;29.22;28.51;97673.46;106006;1251;71659;-44
2023/06/02 10:05:40;;;;;;;8.40;1.80;;;;;;;29.02;28.96;97725.58;105949;1257;60469;-44
2023/06/02 10:08:25;;;;;;;13.00;2.80;;;;;;;29.06;29.33;97803.24;105940;1251;60411;-45
2023/06/02 10:10:56;;;;;;;25.40;3.30;;;;;;;29.41;29.81;97863.63;106023;1257;72175;-45
2023/06/02 10:13:36;;;;;;;56.40;4.50;;;;;;;29.87;29.09;97795.52;105953;1251;64122;-44
2023/06/02 10:16:08;;;;;;;65.90;4.10;;;;;;;30.29;28.90;97781.72;105915;1257;72641;-43
2023/06/02 10:19:01;;;;;;;18.50;2.40;;;;;;;30.51;28.85;97742.83;106001;1257;60524;-43
2023/06/02 10:22:14;;;;;;;5.60;1.80;;;;;;;30.77;28.18;97671.38;105985;1256;60344;-44
2023/06/02 10:24:52;;;;;;;4.70;1.80;;;;;;;30.65;27.22;97493.55;105399;1263;72025;-44
2023/06/02 10:27:30;;;;;;;10.00;2.30;;;;;;;30.34;27.44;97511.58;105543;1262;64030;-44
2023/06/02 10:29:57;;;;;;;3.80;2.00;;;;;;;29.91;27.39;97507.85;105791;1257;71419;-47
2023/06/02 10:32:36;;;;;;;7.90;3.50;;;;;;;29.60;29.24;97697.27;105758;1257;60530;-46
2023/06/02 10:35:05;;;;;;;3.90;2.40;;;;;;;29.93;29.06;97730.22;105971;1256;60418;-46
2023/06/02 10:37:34;;;;;;;13.90;2.40;;;;;;;30.48;28.45;97645.83;105764;1260;73678;-45
2023/06/02 10:40:03;;;;;;;4.00;2.30;;;;;;;30.95;28.34;97646.63;105979;1260;65295;-45
2023/06/02 10:42:31;;;;;;;6.30;1.80;;;;;;;31.15;27.06;97488.01;105908;1257;72641;-45
2023/06/02 10:45:17;;;;;;;13.80;2.50;;;;;;;30.95;28.58;97609.15;105944;1256;60358;-45
2023/06/02 10:47:46;;;;;;;9.30;2.20;;;;;;;30.97;27.13;97487.40;105941;1257;60418;-44
2023/06/02 10:50:17;;;;;;;3.20;1.80;;;;;;;30.89;26.56;97402.89;105948;1256;73801;-45
2023/06/02 10:53:03;;;;;;;9.00;2.20;;;;;;;30.67;27.13;97439.23;105940;1256;63920;-45
2023/06/02 10:55:31;;;;;;;;;;;;;;;30.43;26.44;97331.73;105998;1253;72265;-43
2023/06/02 10:58:01;;;;;;;9.30;2.20;;;;;;;30.05;27.63;97440.86;105921;1256;60469;-44
2023/06/02 11:00:32;;;;;;;6.00;4.00;;;;;;;29.93;27.76;97505.40;105972;1257;60690;-43
2023/06/02 11:03:25;;;;;;;8.10;2.30;;;;;;;29.94;28.00;97532.94;105965;1257;72550;-44
2023/06/02 11:06:18;;;;;;;10.90;2.30;;;;;;;30.00;29.21;97654.06;105949;1257;63900;-43
2023/06/02 11:08:47;;;;;;;4.80;3.40;;;;;;;30.22;29.63;97744.80;105962;1256;72597;-45
2023/06/02 11:11:48;;;;;;;19.70;9.30;;;;;;;30.50;28.48;97635.17;105966;1256;60414;-45
2023/06/02 11:14:16;;;;;;;4.50;2.40;;;;;;;30.78;28.78;97648.39;105922;1256;60341;-44
2023/06/02 11:16:43;;;;;;;3.40;1.90;;;;;;;30.89;27.32;97497.16;105898;1257;73886;-44
2023/06/02 11:19:11;;;;;;;8.50;2.60;;;;;;;30.76;28.68;97606.10;105974;1251;64024;-44
2023/06/02 11:21:39;;;;;;;4.90;2.10;;;;;;;30.88;27.67;97568.41;105956;1257;72652;-45
2023/06/02 11:24:07;;;;;;;3.40;2.40;;;;;;;30.76;26.94;97434.00;105961;1257;60485;-44
2023/06/02 11:26:46;;;;;;;6.30;2.40;;;;;;;30.44;26.63;97381.33;105727;1260;60431;-44
2023/06/02 11:29:15;;;;;;;4.30;2.60;;;;;;;30.04;28.05;97513.10;105914;1265;73790;-45
2023/06/02 11:31:49;;;;;;;13.80;2.40;;;;;;;30.04;27.15;97460.91;105935;1257;65218;-45